sensor_id;sensor_type;location;lat;lon;timestamp;temperature;humidity
73133;DHT22;61320;52.008;4.530;2023-02-07T00:01:13;2.92;78.13
73133;DHT22;61320;52.008;4.530;2023-02-07T00:03:39;2.90;78.21
73133;DHT22;61320;52.008;4.530;2023-02-07T00:06:06;2.89;78.30
73133;DHT22;61320;52.008;4.530;2023-02-07T00:08:32;2.89;78.22
73133;DHT22;61320;52.008;4.530;2023-02-07T00:11:03;2.90;78.22
73133;DHT22;61320;52.008;4.530;2023-02-07T00:13:28;2.86;78.17
73133;DHT22;61320;52.008;4.530;2023-02-07T00:15:54;2.87;78.23
73133;DHT22;61320;52.008;4.530;2023-02-07T00:18:19;2.85;78.05
73133;DHT22;61320;52.008;4.530;2023-02-07T00:20:45;2.85;78.16
73133;DHT22;61320;52.008;4.530;2023-02-07T00:23:10;2.82;78.24
73133;DHT22;61320;52.008;4.530;2023-02-07T00:25:36;2.80;78.29
73133;DHT22;61320;52.008;4.530;2023-02-07T00:28:01;2.82;78.35
73133;DHT22;61320;52.008;4.530;2023-02-07T00:30:26;2.80;78.23
73133;DHT22;61320;52.008;4.530;2023-02-07T00:32:52;2.80;78.25
73133;DHT22;61320;52.008;4.530;2023-02-07T00:35:17;2.82;78.31
73133;DHT22;61320;52.008;4.530;2023-02-07T00:37:43;2.82;78.27
73133;DHT22;61320;52.008;4.530;2023-02-07T00:40:08;2.86;78.27
73133;DHT22;61320;52.008;4.530;2023-02-07T00:42:34;2.85;78.18
73133;DHT22;61320;52.008;4.530;2023-02-07T00:44:59;2.79;78.17
73133;DHT22;61320;52.008;4.530;2023-02-07T00:47:25;2.76;78.09
73133;DHT22;61320;52.008;4.530;2023-02-07T00:49:51;2.76;78.18
73133;DHT22;61320;52.008;4.530;2023-02-07T00:52:16;2.73;78.11
73133;DHT22;61320;52.008;4.530;2023-02-07T00:54:41;2.75;78.23
73133;DHT22;61320;52.008;4.530;2023-02-07T00:57:07;2.73;78.24
73133;DHT22;61320;52.008;4.530;2023-02-07T00:59:32;2.73;78.24
73133;DHT22;61320;52.008;4.530;2023-02-07T01:01:58;2.71;78.24
73133;DHT22;61320;52.008;4.530;2023-02-07T01:04:23;2.71;78.32
73133;DHT22;61320;52.008;4.530;2023-02-07T01:06:49;2.69;78.38
73133;DHT22;61320;52.008;4.530;2023-02-07T01:09:14;2.69;78.49
73133;DHT22;61320;52.008;4.530;2023-02-07T01:11:39;2.71;78.48
73133;DHT22;61320;52.008;4.530;2023-02-07T01:14:05;2.71;78.50
73133;DHT22;61320;52.008;4.530;2023-02-07T01:16:34;2.71;78.56
73133;DHT22;61320;52.008;4.530;2023-02-07T01:19:04;2.72;78.61
73133;DHT22;61320;52.008;4.530;2023-02-07T01:21:30;2.69;78.53
73133;DHT22;61320;52.008;4.530;2023-02-07T01:23:56;2.69;78.50
73133;DHT22;61320;52.008;4.530;2023-02-07T01:26:26;2.66;78.44
73133;DHT22;61320;52.008;4.530;2023-02-07T01:28:55;2.65;78.46
73133;DHT22;61320;52.008;4.530;2023-02-07T01:31:22;2.67;78.65
73133;DHT22;61320;52.008;4.530;2023-02-07T01:33:52;2.65;78.66
73133;DHT22;61320;52.008;4.530;2023-02-07T01:36:19;2.63;78.60
73133;DHT22;61320;52.008;4.530;2023-02-07T01:38:44;2.65;78.64
73133;DHT22;61320;52.008;4.530;2023-02-07T01:41:12;2.66;78.57
73133;DHT22;61320;52.008;4.530;2023-02-07T01:44:06;2.63;78.52
73133;DHT22;61320;52.008;4.530;2023-02-07T01:46:34;2.63;78.54
73133;DHT22;61320;52.008;4.530;2023-02-07T01:49:07;2.63;78.48
73133;DHT22;61320;52.008;4.530;2023-02-07T01:51:35;2.65;78.48
73133;DHT22;61320;52.008;4.530;2023-02-07T01:54:07;2.59;78.56
73133;DHT22;61320;52.008;4.530;2023-02-07T01:56:37;2.59;78.51
73133;DHT22;61320;52.008;4.530;2023-02-07T01:59:05;2.56;78.56
73133;DHT22;61320;52.008;4.530;2023-02-07T02:01:31;2.58;78.67
73133;DHT22;61320;52.008;4.530;2023-02-07T02:03:57;2.55;78.61
73133;DHT22;61320;52.008;4.530;2023-02-07T02:06:27;2.56;78.51
73133;DHT22;61320;52.008;4.530;2023-02-07T02:08:56;2.53;78.53
73133;DHT22;61320;52.008;4.530;2023-02-07T02:14:43;2.49;78.49
73133;DHT22;61320;52.008;4.530;2023-02-07T02:17:14;2.46;78.53
73133;DHT22;61320;52.008;4.530;2023-02-07T02:33:51;2.41;78.56
73133;DHT22;61320;52.008;4.530;2023-02-07T02:39:22;2.35;78.49
73133;DHT22;61320;52.008;4.530;2023-02-07T02:42:18;2.38;78.54
73133;DHT22;61320;52.008;4.530;2023-02-07T02:44:55;2.37;78.48
73133;DHT22;61320;52.008;4.530;2023-02-07T02:47:25;2.34;78.52
73133;DHT22;61320;52.008;4.530;2023-02-07T02:49:51;2.34;78.57
73133;DHT22;61320;52.008;4.530;2023-02-07T02:52:17;2.29;78.50
73133;DHT22;61320;52.008;4.530;2023-02-07T02:54:43;2.31;78.63
73133;DHT22;61320;52.008;4.530;2023-02-07T03:02:56;2.34;78.87
73133;DHT22;61320;52.008;4.530;2023-02-07T03:08:24;2.35;79.19
73133;DHT22;61320;52.008;4.530;2023-02-07T03:16:23;2.42;79.84
73133;DHT22;61320;52.008;4.530;2023-02-07T03:21:55;2.46;79.89
73133;DHT22;61320;52.008;4.530;2023-02-07T03:24:30;2.49;80.02
73133;DHT22;61320;52.008;4.530;2023-02-07T03:27:02;2.52;80.29
73133;DHT22;61320;52.008;4.530;2023-02-07T03:29:30;2.55;80.27
73133;DHT22;61320;52.008;4.530;2023-02-07T03:32:00;2.58;80.41
73133;DHT22;61320;52.008;4.530;2023-02-07T03:34:58;2.66;80.70
73133;DHT22;61320;52.008;4.530;2023-02-07T03:37:38;2.71;80.97
73133;DHT22;61320;52.008;4.530;2023-02-07T03:40:05;2.76;81.02
73133;DHT22;61320;52.008;4.530;2023-02-07T03:45:02;2.79;80.89
73133;DHT22;61320;52.008;4.530;2023-02-07T03:47:29;2.82;80.99
73133;DHT22;61320;52.008;4.530;2023-02-07T03:49:55;2.86;81.07
73133;DHT22;61320;52.008;4.530;2023-02-07T03:52:21;2.89;80.97
73133;DHT22;61320;52.008;4.530;2023-02-07T03:54:46;2.92;80.90
73133;DHT22;61320;52.008;4.530;2023-02-07T03:57:12;2.93;80.73
73133;DHT22;61320;52.008;4.530;2023-02-07T03:59:37;2.96;80.69
73133;DHT22;61320;52.008;4.530;2023-02-07T04:02:03;2.97;80.67
73133;DHT22;61320;52.008;4.530;2023-02-07T04:04:29;2.97;80.74
73133;DHT22;61320;52.008;4.530;2023-02-07T04:06:55;2.99;80.67
73133;DHT22;61320;52.008;4.530;2023-02-07T04:09:20;3.01;80.57
73133;DHT22;61320;52.008;4.530;2023-02-07T04:11:50;3.00;80.68
73133;DHT22;61320;52.008;4.530;2023-02-07T04:14:17;3.01;80.69
73133;DHT22;61320;52.008;4.530;2023-02-07T04:16:45;2.97;80.57
73133;DHT22;61320;52.008;4.530;2023-02-07T04:19:10;2.99;80.64
73133;DHT22;61320;52.008;4.530;2023-02-07T04:21:36;2.97;80.64
73133;DHT22;61320;52.008;4.530;2023-02-07T04:24:01;2.99;80.66
73133;DHT22;61320;52.008;4.530;2023-02-07T04:26:26;2.99;80.64
73133;DHT22;61320;52.008;4.530;2023-02-07T04:28:52;2.99;80.64
73133;DHT22;61320;52.008;4.530;2023-02-07T04:31:17;2.99;80.78
73133;DHT22;61320;52.008;4.530;2023-02-07T04:33:43;2.99;80.81
73133;DHT22;61320;52.008;4.530;2023-02-07T04:36:08;2.99;80.99
73133;DHT22;61320;52.008;4.530;2023-02-07T04:38:34;3.00;81.02
73133;DHT22;61320;52.008;4.530;2023-02-07T04:41:01;2.96;81.19
73133;DHT22;61320;52.008;4.530;2023-02-07T04:43:32;2.96;81.38
73133;DHT22;61320;52.008;4.530;2023-02-07T04:45:58;2.97;81.32
73133;DHT22;61320;52.008;4.530;2023-02-07T04:48:24;3.00;81.29
73133;DHT22;61320;52.008;4.530;2023-02-07T04:50:50;3.00;81.08
73133;DHT22;61320;52.008;4.530;2023-02-07T04:53:15;3.00;80.75
73133;DHT22;61320;52.008;4.530;2023-02-07T04:55:41;3.00;80.67
73133;DHT22;61320;52.008;4.530;2023-02-07T04:58:06;3.01;80.64
73133;DHT22;61320;52.008;4.530;2023-02-07T05:00:32;3.03;80.60
73133;DHT22;61320;52.008;4.530;2023-02-07T05:02:59;3.01;80.50
73133;DHT22;61320;52.008;4.530;2023-02-07T05:05:24;3.00;80.32
73133;DHT22;61320;52.008;4.530;2023-02-07T05:07:50;2.97;80.34
73133;DHT22;61320;52.008;4.530;2023-02-07T05:10:15;2.95;80.39
73133;DHT22;61320;52.008;4.530;2023-02-07T05:12:41;2.96;80.39
73133;DHT22;61320;52.008;4.530;2023-02-07T05:15:07;2.95;80.26
73133;DHT22;61320;52.008;4.530;2023-02-07T05:17:32;2.89;80.37
73133;DHT22;61320;52.008;4.530;2023-02-07T05:20:03;2.89;80.43
73133;DHT22;61320;52.008;4.530;2023-02-07T05:22:29;2.86;80.28
73133;DHT22;61320;52.008;4.530;2023-02-07T05:24:55;2.82;80.39
73133;DHT22;61320;52.008;4.530;2023-02-07T05:27:20;2.79;80.47
73133;DHT22;61320;52.008;4.530;2023-02-07T05:29:46;2.80;80.53
73133;DHT22;61320;52.008;4.530;2023-02-07T05:32:13;2.79;80.67
73133;DHT22;61320;52.008;4.530;2023-02-07T05:34:58;2.75;80.55
73133;DHT22;61320;52.008;4.530;2023-02-07T05:37:24;2.75;80.52
73133;DHT22;61320;52.008;4.530;2023-02-07T05:39:49;2.71;80.54
73133;DHT22;61320;52.008;4.530;2023-02-07T05:42:15;2.72;80.43
73133;DHT22;61320;52.008;4.530;2023-02-07T05:44:41;2.71;80.40
73133;DHT22;61320;52.008;4.530;2023-02-07T05:47:06;2.67;80.39
73133;DHT22;61320;52.008;4.530;2023-02-07T05:49:32;2.67;80.47
73133;DHT22;61320;52.008;4.530;2023-02-07T05:51:58;2.65;80.34
73133;DHT22;61320;52.008;4.530;2023-02-07T05:54:24;2.67;80.23
73133;DHT22;61320;52.008;4.530;2023-02-07T05:56:49;2.63;79.99
73133;DHT22;61320;52.008;4.530;2023-02-07T05:59:15;2.66;79.81
73133;DHT22;61320;52.008;4.530;2023-02-07T06:01:40;2.65;79.52
73133;DHT22;61320;52.008;4.530;2023-02-07T06:04:06;2.58;79.30
73133;DHT22;61320;52.008;4.530;2023-02-07T06:06:31;2.58;79.40
73133;DHT22;61320;52.008;4.530;2023-02-07T06:08:57;2.52;79.35
73133;DHT22;61320;52.008;4.530;2023-02-07T06:11:23;2.49;79.27
73133;DHT22;61320;52.008;4.530;2023-02-07T06:13:48;2.48;79.46
73133;DHT22;61320;52.008;4.530;2023-02-07T06:16:13;2.49;79.47
73133;DHT22;61320;52.008;4.530;2023-02-07T06:18:39;2.49;79.49
73133;DHT22;61320;52.008;4.530;2023-02-07T06:21:04;2.53;79.37
73133;DHT22;61320;52.008;4.530;2023-02-07T06:23:30;2.52;79.14
73133;DHT22;61320;52.008;4.530;2023-02-07T06:25:56;2.49;79.05
73133;DHT22;61320;52.008;4.530;2023-02-07T06:28:21;2.48;79.05
73133;DHT22;61320;52.008;4.530;2023-02-07T06:30:49;2.46;79.09
73133;DHT22;61320;52.008;4.530;2023-02-07T06:33:15;2.45;78.92
73133;DHT22;61320;52.008;4.530;2023-02-07T06:35:53;2.44;79.15
73133;DHT22;61320;52.008;4.530;2023-02-07T06:38:20;2.45;79.23
73133;DHT22;61320;52.008;4.530;2023-02-07T06:40:46;2.45;79.10
73133;DHT22;61320;52.008;4.530;2023-02-07T06:43:13;2.45;79.17
73133;DHT22;61320;52.008;4.530;2023-02-07T06:45:38;2.44;78.99
73133;DHT22;61320;52.008;4.530;2023-02-07T06:48:04;2.44;79.25
73133;DHT22;61320;52.008;4.530;2023-02-07T06:50:30;2.45;79.10
73133;DHT22;61320;52.008;4.530;2023-02-07T06:52:55;2.48;79.10
73133;DHT22;61320;52.008;4.530;2023-02-07T06:55:27;2.49;79.16
73133;DHT22;61320;52.008;4.530;2023-02-07T06:57:53;2.55;79.39
73133;DHT22;61320;52.008;4.530;2023-02-07T07:00:19;2.56;79.42
73133;DHT22;61320;52.008;4.530;2023-02-07T07:02:46;2.63;79.35
73133;DHT22;61320;52.008;4.530;2023-02-07T07:05:12;2.59;79.73
73133;DHT22;61320;52.008;4.530;2023-02-07T07:07:37;2.62;80.03
73133;DHT22;61320;52.008;4.530;2023-02-07T07:10:03;2.60;80.07
73133;DHT22;61320;52.008;4.530;2023-02-07T07:12:29;2.59;80.14
73133;DHT22;61320;52.008;4.530;2023-02-07T07:14:54;2.56;80.28
73133;DHT22;61320;52.008;4.530;2023-02-07T07:17:19;2.52;80.79
73133;DHT22;61320;52.008;4.530;2023-02-07T07:19:45;2.55;80.59
73133;DHT22;61320;52.008;4.530;2023-02-07T07:22:10;2.56;80.67
73133;DHT22;61320;52.008;4.530;2023-02-07T07:24:36;2.52;80.42
73133;DHT22;61320;52.008;4.530;2023-02-07T07:27:01;2.46;80.61
73133;DHT22;61320;52.008;4.530;2023-02-07T07:29:27;2.46;80.62
73133;DHT22;61320;52.008;4.530;2023-02-07T07:31:52;2.48;80.91
73133;DHT22;61320;52.008;4.530;2023-02-07T07:34:17;2.48;80.79
73133;DHT22;61320;52.008;4.530;2023-02-07T07:36:43;2.52;80.74
73133;DHT22;61320;52.008;4.530;2023-02-07T07:39:08;2.46;80.12
73133;DHT22;61320;52.008;4.530;2023-02-07T07:41:35;2.41;80.23
73133;DHT22;61320;52.008;4.530;2023-02-07T07:44:00;2.32;80.49
73133;DHT22;61320;52.008;4.530;2023-02-07T07:46:26;2.37;80.91
73133;DHT22;61320;52.008;4.530;2023-02-07T07:48:51;2.39;80.88
73133;DHT22;61320;52.008;4.530;2023-02-07T07:51:17;2.41;80.55
73133;DHT22;61320;52.008;4.530;2023-02-07T07:53:42;2.45;80.60
73133;DHT22;61320;52.008;4.530;2023-02-07T07:56:07;2.46;80.69
73133;DHT22;61320;52.008;4.530;2023-02-07T07:58:33;2.45;80.60
73133;DHT22;61320;52.008;4.530;2023-02-07T08:00:58;2.46;80.68
73133;DHT22;61320;52.008;4.530;2023-02-07T08:03:24;2.53;80.19
73133;DHT22;61320;52.008;4.530;2023-02-07T08:05:50;2.53;80.08
73133;DHT22;61320;52.008;4.530;2023-02-07T08:08:16;2.52;80.45
73133;DHT22;61320;52.008;4.530;2023-02-07T08:10:45;2.56;80.29
73133;DHT22;61320;52.008;4.530;2023-02-07T08:13:10;2.55;80.34
73133;DHT22;61320;52.008;4.530;2023-02-07T08:15:36;2.60;80.62
73133;DHT22;61320;52.008;4.530;2023-02-07T08:18:02;2.63;80.47
73133;DHT22;61320;52.008;4.530;2023-02-07T08:20:28;2.72;80.11
73133;DHT22;61320;52.008;4.530;2023-02-07T08:22:53;2.69;79.89
73133;DHT22;61320;52.008;4.530;2023-02-07T08:25:19;2.71;79.99
73133;DHT22;61320;52.008;4.530;2023-02-07T08:27:44;2.72;79.84
73133;DHT22;61320;52.008;4.530;2023-02-07T08:30:11;2.73;79.91
73133;DHT22;61320;52.008;4.530;2023-02-07T08:32:37;2.79;79.60
73133;DHT22;61320;52.008;4.530;2023-02-07T08:35:04;2.90;79.81
73133;DHT22;61320;52.008;4.530;2023-02-07T08:37:30;2.95;79.66
73133;DHT22;61320;52.008;4.530;2023-02-07T08:39:55;3.04;79.21
73133;DHT22;61320;52.008;4.530;2023-02-07T08:42:22;2.96;78.96
73133;DHT22;61320;52.008;4.530;2023-02-07T08:44:49;2.97;78.98
73133;DHT22;61320;52.008;4.530;2023-02-07T08:47:16;3.04;79.00
73133;DHT22;61320;52.008;4.530;2023-02-07T08:49:42;3.00;79.06
73133;DHT22;61320;52.008;4.530;2023-02-07T08:52:10;3.11;78.97
73133;DHT22;61320;52.008;4.530;2023-02-07T08:54:35;3.08;78.96
73133;DHT22;61320;52.008;4.530;2023-02-07T08:57:01;3.13;78.78
73133;DHT22;61320;52.008;4.530;2023-02-07T08:59:27;3.14;78.82
73133;DHT22;61320;52.008;4.530;2023-02-07T09:01:52;3.17;78.80
73133;DHT22;61320;52.008;4.530;2023-02-07T09:04:18;3.21;78.68
73133;DHT22;61320;52.008;4.530;2023-02-07T09:06:43;3.20;78.64
73133;DHT22;61320;52.008;4.530;2023-02-07T09:09:09;3.23;78.58
73133;DHT22;61320;52.008;4.530;2023-02-07T09:11:35;3.21;78.13
73133;DHT22;61320;52.008;4.530;2023-02-07T09:14:01;3.23;78.46
73133;DHT22;61320;52.008;4.530;2023-02-07T09:16:27;3.28;78.07
73133;DHT22;61320;52.008;4.530;2023-02-07T09:18:53;3.21;77.85
73133;DHT22;61320;52.008;4.530;2023-02-07T09:21:18;3.25;78.13
73133;DHT22;61320;52.008;4.530;2023-02-07T09:23:44;3.25;78.07
73133;DHT22;61320;52.008;4.530;2023-02-07T09:26:18;3.28;77.95
73133;DHT22;61320;52.008;4.530;2023-02-07T09:28:44;3.27;77.84
73133;DHT22;61320;52.008;4.530;2023-02-07T09:31:11;3.35;77.78
73133;DHT22;61320;52.008;4.530;2023-02-07T09:33:37;3.41;77.78
73133;DHT22;61320;52.008;4.530;2023-02-07T09:36:04;3.45;77.97
73133;DHT22;61320;52.008;4.530;2023-02-07T09:38:30;3.50;77.25
73133;DHT22;61320;52.008;4.530;2023-02-07T09:40:56;3.54;77.58
73133;DHT22;61320;52.008;4.530;2023-02-07T09:43:55;3.61;77.39
73133;DHT22;61320;52.008;4.530;2023-02-07T09:46:31;3.58;77.32
73133;DHT22;61320;52.008;4.530;2023-02-07T09:49:11;3.64;77.26
73133;DHT22;61320;52.008;4.530;2023-02-07T09:51:42;3.69;77.32
73133;DHT22;61320;52.008;4.530;2023-02-07T09:54:34;3.82;77.49
73133;DHT22;61320;52.008;4.530;2023-02-07T09:57:07;3.85;77.35
73133;DHT22;61320;52.008;4.530;2023-02-07T10:04:58;4.18;77.02
73133;DHT22;61320;52.008;4.530;2023-02-07T10:07:24;4.29;76.85
73133;DHT22;61320;52.008;4.530;2023-02-07T10:09:50;4.34;76.61
73133;DHT22;61320;52.008;4.530;2023-02-07T10:26:53;4.14;76.94
73133;DHT22;61320;52.008;4.530;2023-02-07T10:32:36;4.13;75.53
73133;DHT22;61320;52.008;4.530;2023-02-07T10:35:14;4.06;76.37
73133;DHT22;61320;52.008;4.530;2023-02-07T10:37:44;4.11;76.38
73133;DHT22;61320;52.008;4.530;2023-02-07T10:40:23;4.09;76.39
73133;DHT22;61320;52.008;4.530;2023-02-07T10:43:08;4.07;76.12
73133;DHT22;61320;52.008;4.530;2023-02-07T10:45:38;3.97;75.88
73133;DHT22;61320;52.008;4.530;2023-02-07T10:48:15;3.99;76.03
73133;DHT22;61320;52.008;4.530;2023-02-07T10:50:41;4.02;75.64
73133;DHT22;61320;52.008;4.530;2023-02-07T10:53:07;4.07;76.02
73133;DHT22;61320;52.008;4.530;2023-02-07T10:55:43;4.21;76.03
73133;DHT22;61320;52.008;4.530;2023-02-07T10:58:22;4.30;75.02
73133;DHT22;61320;52.008;4.530;2023-02-07T11:00:53;4.36;75.28
73133;DHT22;61320;52.008;4.530;2023-02-07T11:03:24;4.47;75.09
73133;DHT22;61320;52.008;4.530;2023-02-07T11:05:54;4.44;73.98
73133;DHT22;61320;52.008;4.530;2023-02-07T11:08:24;4.44;73.72
73133;DHT22;61320;52.008;4.530;2023-02-07T11:10:53;4.50;74.14
73133;DHT22;61320;52.008;4.530;2023-02-07T11:13:22;4.60;74.00
73133;DHT22;61320;52.008;4.530;2023-02-07T11:15:53;4.71;73.47
73133;DHT22;61320;52.008;4.530;2023-02-07T11:21:06;4.97;73.47
73133;DHT22;61320;52.008;4.530;2023-02-07T11:23:32;5.13;73.26
73133;DHT22;61320;52.008;4.530;2023-02-07T11:26:01;5.22;72.92
73133;DHT22;61320;52.008;4.530;2023-02-07T11:28:30;5.24;72.63
73133;DHT22;61320;52.008;4.530;2023-02-07T11:31:01;5.26;71.63
73133;DHT22;61320;52.008;4.530;2023-02-07T11:33:33;5.15;71.54
73133;DHT22;61320;52.008;4.530;2023-02-07T11:38:30;5.22;72.38
73133;DHT22;61320;52.008;4.530;2023-02-07T11:40:59;5.30;72.63
73133;DHT22;61320;52.008;4.530;2023-02-07T11:43:32;5.43;73.29
73133;DHT22;61320;52.008;4.530;2023-02-07T11:46:09;5.54;72.97
73133;DHT22;61320;52.008;4.530;2023-02-07T11:48:37;5.68;72.20
73133;DHT22;61320;52.008;4.530;2023-02-07T11:51:07;5.72;71.17
73133;DHT22;61320;52.008;4.530;2023-02-07T11:53:40;5.68;71.22
73133;DHT22;61320;52.008;4.530;2023-02-07T11:58:57;5.58;70.89
73133;DHT22;61320;52.008;4.530;2023-02-07T12:01:28;5.58;69.78
73133;DHT22;61320;52.008;4.530;2023-02-07T12:04:02;5.63;70.35
73133;DHT22;61320;52.008;4.530;2023-02-07T12:06:46;5.70;70.55
73133;DHT22;61320;52.008;4.530;2023-02-07T12:09:29;5.95;70.11
73133;DHT22;61320;52.008;4.530;2023-02-07T12:12:01;6.12;69.16
73133;DHT22;61320;52.008;4.530;2023-02-07T12:14:47;6.11;68.85
73133;DHT22;61320;52.008;4.530;2023-02-07T12:17:22;6.15;69.46
73133;DHT22;61320;52.008;4.530;2023-02-07T12:20:08;6.19;69.30
73133;DHT22;61320;52.008;4.530;2023-02-07T12:22:47;6.08;69.00
73133;DHT22;61320;52.008;4.530;2023-02-07T12:25:24;5.92;69.15
73133;DHT22;61320;52.008;4.530;2023-02-07T12:27:58;5.85;70.30
73133;DHT22;61320;52.008;4.530;2023-02-07T12:30:40;5.88;70.28
73133;DHT22;61320;52.008;4.530;2023-02-07T12:38:55;5.88;68.75
73133;DHT22;61320;52.008;4.530;2023-02-07T12:41:29;5.82;68.85
73133;DHT22;61320;52.008;4.530;2023-02-07T12:46:50;5.84;69.12
73133;DHT22;61320;52.008;4.530;2023-02-07T12:52:29;5.94;68.73
73133;DHT22;61320;52.008;4.530;2023-02-07T12:55:29;5.90;68.61
73133;DHT22;61320;52.008;4.530;2023-02-07T13:01:06;5.99;67.72
73133;DHT22;61320;52.008;4.530;2023-02-07T13:06:39;6.08;67.12
73133;DHT22;61320;52.008;4.530;2023-02-07T13:09:28;6.16;67.13
73133;DHT22;61320;52.008;4.530;2023-02-07T13:18:15;6.19;68.08
73133;DHT22;61320;52.008;4.530;2023-02-07T13:20:51;6.30;68.09
73133;DHT22;61320;52.008;4.530;2023-02-07T13:23:21;6.33;67.84
73133;DHT22;61320;52.008;4.530;2023-02-07T13:25:53;6.30;68.09
73133;DHT22;61320;52.008;4.530;2023-02-07T13:28:42;6.44;67.04
73133;DHT22;61320;52.008;4.530;2023-02-07T13:31:15;6.46;67.03
73133;DHT22;61320;52.008;4.530;2023-02-07T13:33:42;6.50;66.17
73133;DHT22;61320;52.008;4.530;2023-02-07T13:36:41;6.53;66.53
73133;DHT22;61320;52.008;4.530;2023-02-07T13:39:42;6.66;66.23
73133;DHT22;61320;52.008;4.530;2023-02-07T13:42:32;6.64;65.91
73133;DHT22;61320;52.008;4.530;2023-02-07T13:48:00;6.71;65.97
73133;DHT22;61320;52.008;4.530;2023-02-07T13:50:42;6.70;65.09
73133;DHT22;61320;52.008;4.530;2023-02-07T13:55:41;6.80;66.47
73133;DHT22;61320;52.008;4.530;2023-02-07T14:04:08;6.87;65.55
73133;DHT22;61320;52.008;4.530;2023-02-07T14:06:42;6.87;64.48
73133;DHT22;61320;52.008;4.530;2023-02-07T14:11:57;6.84;63.99
73133;DHT22;61320;52.008;4.530;2023-02-07T14:14:28;6.77;64.08
73133;DHT22;61320;52.008;4.530;2023-02-07T14:16:57;6.81;65.37
73133;DHT22;61320;52.008;4.530;2023-02-07T14:19:47;6.84;65.54
73133;DHT22;61320;52.008;4.530;2023-02-07T14:22:23;6.87;65.57
73133;DHT22;61320;52.008;4.530;2023-02-07T14:33:16;6.81;65.67
73133;DHT22;61320;52.008;4.530;2023-02-07T14:38:38;6.74;66.54
73133;DHT22;61320;52.008;4.530;2023-02-07T14:41:08;6.71;66.27
73133;DHT22;61320;52.008;4.530;2023-02-07T14:43:53;6.70;66.15
73133;DHT22;61320;52.008;4.530;2023-02-07T14:46:31;6.66;66.59
73133;DHT22;61320;52.008;4.530;2023-02-07T14:49:12;6.63;66.34
73133;DHT22;61320;52.008;4.530;2023-02-07T14:51:44;6.58;66.63
73133;DHT22;61320;52.008;4.530;2023-02-07T15:02:52;6.50;66.12
73133;DHT22;61320;52.008;4.530;2023-02-07T15:05:33;6.50;65.04
73133;DHT22;61320;52.008;4.530;2023-02-07T15:10:32;6.44;65.41
73133;DHT22;61320;52.008;4.530;2023-02-07T15:13:01;6.42;65.18
73133;DHT22;61320;52.008;4.530;2023-02-07T15:15:34;6.46;65.05
73133;DHT22;61320;52.008;4.530;2023-02-07T15:18:12;6.42;65.09
73133;DHT22;61320;52.008;4.530;2023-02-07T15:20:39;6.42;65.62
73133;DHT22;61320;52.008;4.530;2023-02-07T15:23:05;6.43;65.02
73133;DHT22;61320;52.008;4.530;2023-02-07T15:25:35;6.39;64.98
73133;DHT22;61320;52.008;4.530;2023-02-07T15:28:04;6.34;64.93
73133;DHT22;61320;52.008;4.530;2023-02-07T15:30:30;6.40;64.88
73133;DHT22;61320;52.008;4.530;2023-02-07T15:32:57;6.39;65.21
73133;DHT22;61320;52.008;4.530;2023-02-07T15:35:25;6.34;65.76
73133;DHT22;61320;52.008;4.530;2023-02-07T15:38:11;6.32;65.49
73133;DHT22;61320;52.008;4.530;2023-02-07T15:40:38;6.29;65.71
73133;DHT22;61320;52.008;4.530;2023-02-07T15:43:04;6.26;65.98
73133;DHT22;61320;52.008;4.530;2023-02-07T15:45:31;6.25;66.26
73133;DHT22;61320;52.008;4.530;2023-02-07T15:47:58;6.21;65.99
73133;DHT22;61320;52.008;4.530;2023-02-07T15:50:26;6.11;66.80
73133;DHT22;61320;52.008;4.530;2023-02-07T15:52:55;6.09;67.23
73133;DHT22;61320;52.008;4.530;2023-02-07T15:55:46;6.11;67.16
73133;DHT22;61320;52.008;4.530;2023-02-07T15:58:33;6.09;67.67
73133;DHT22;61320;52.008;4.530;2023-02-07T16:01:05;6.03;67.29
73133;DHT22;61320;52.008;4.530;2023-02-07T16:03:37;6.02;67.24
73133;DHT22;61320;52.008;4.530;2023-02-07T16:06:17;5.99;67.31
73133;DHT22;61320;52.008;4.530;2023-02-07T16:08:47;5.97;67.84
73133;DHT22;61320;52.008;4.530;2023-02-07T16:14:03;5.85;68.31
73133;DHT22;61320;52.008;4.530;2023-02-07T16:16:40;5.79;68.36
73133;DHT22;61320;52.008;4.530;2023-02-07T16:21:41;5.74;68.61
73133;DHT22;61320;52.008;4.530;2023-02-07T16:24:14;5.71;68.58
73133;DHT22;61320;52.008;4.530;2023-02-07T16:26:41;5.68;68.99
73133;DHT22;61320;52.008;4.530;2023-02-07T16:29:14;5.64;69.18
73133;DHT22;61320;52.008;4.530;2023-02-07T16:31:40;5.60;69.34
73133;DHT22;61320;52.008;4.530;2023-02-07T16:34:10;5.54;69.39
73133;DHT22;61320;52.008;4.530;2023-02-07T16:36:36;5.50;69.57
73133;DHT22;61320;52.008;4.530;2023-02-07T16:39:02;5.47;69.36
73133;DHT22;61320;52.008;4.530;2023-02-07T16:41:30;5.40;69.55
73133;DHT22;61320;52.008;4.530;2023-02-07T16:44:01;5.36;69.85
73133;DHT22;61320;52.008;4.530;2023-02-07T16:46:28;5.33;69.93
73133;DHT22;61320;52.008;4.530;2023-02-07T16:48:54;5.29;70.08
73133;DHT22;61320;52.008;4.530;2023-02-07T16:51:19;5.29;70.13
73133;DHT22;61320;52.008;4.530;2023-02-07T16:53:45;5.22;70.18
73133;DHT22;61320;52.008;4.530;2023-02-07T16:56:14;5.16;70.33
73133;DHT22;61320;52.008;4.530;2023-02-07T16:58:43;5.08;70.53
73133;DHT22;61320;52.008;4.530;2023-02-07T17:01:16;5.00;70.79
73133;DHT22;61320;52.008;4.530;2023-02-07T17:03:41;4.95;70.92
73133;DHT22;61320;52.008;4.530;2023-02-07T17:06:12;4.91;70.99
73133;DHT22;61320;52.008;4.530;2023-02-07T17:08:38;4.82;71.12
73133;DHT22;61320;52.008;4.530;2023-02-07T17:11:04;4.76;71.26
73133;DHT22;61320;52.008;4.530;2023-02-07T17:13:31;4.71;71.50
73133;DHT22;61320;52.008;4.530;2023-02-07T17:15:56;4.65;71.54
73133;DHT22;61320;52.008;4.530;2023-02-07T17:18:24;4.60;71.73
73133;DHT22;61320;52.008;4.530;2023-02-07T17:20:50;4.57;71.94
73133;DHT22;61320;52.008;4.530;2023-02-07T17:23:16;4.55;72.05
73133;DHT22;61320;52.008;4.530;2023-02-07T17:25:43;4.48;72.17
73133;DHT22;61320;52.008;4.530;2023-02-07T17:28:12;4.44;72.21
73133;DHT22;61320;52.008;4.530;2023-02-07T17:30:39;4.38;72.33
73133;DHT22;61320;52.008;4.530;2023-02-07T17:33:06;4.34;72.47
73133;DHT22;61320;52.008;4.530;2023-02-07T17:35:33;4.29;72.61
73133;DHT22;61320;52.008;4.530;2023-02-07T17:38:00;4.26;72.74
73133;DHT22;61320;52.008;4.530;2023-02-07T17:40:30;4.18;72.97
73133;DHT22;61320;52.008;4.530;2023-02-07T17:42:56;4.17;73.10
73133;DHT22;61320;52.008;4.530;2023-02-07T17:45:23;4.14;73.13
73133;DHT22;61320;52.008;4.530;2023-02-07T17:47:48;4.10;73.12
73133;DHT22;61320;52.008;4.530;2023-02-07T17:50:20;4.06;73.08
73133;DHT22;61320;52.008;4.530;2023-02-07T17:52:46;4.00;73.10
73133;DHT22;61320;52.008;4.530;2023-02-07T17:55:13;3.96;73.35
73133;DHT22;61320;52.008;4.530;2023-02-07T17:57:39;3.90;73.54
73133;DHT22;61320;52.008;4.530;2023-02-07T18:02:41;3.85;73.98
73133;DHT22;61320;52.008;4.530;2023-02-07T18:05:07;3.79;74.03
73133;DHT22;61320;52.008;4.530;2023-02-07T18:07:33;3.81;74.01
73133;DHT22;61320;52.008;4.530;2023-02-07T18:09:58;3.74;74.15
73133;DHT22;61320;52.008;4.530;2023-02-07T18:12:24;3.71;74.19
73133;DHT22;61320;52.008;4.530;2023-02-07T18:14:49;3.71;74.19
73133;DHT22;61320;52.008;4.530;2023-02-07T18:17:17;3.65;74.31